createdAt,value
2018-07-09T00:01:55.061Z,97814.36
2018-07-09T00:04:27.070Z,97809.62
2018-07-09T00:06:59.400Z,97810.85
2018-07-09T00:09:32.281Z,97816.75
2018-07-09T00:12:04.296Z,97822.31
2018-07-09T00:14:36.557Z,97827.38
2018-07-09T00:17:08.799Z,97822.02
2018-07-09T00:19:41.619Z,97820.96
2018-07-09T00:22:13.605Z,97819.32
2018-07-09T00:24:46.684Z,97820.66
2018-07-09T00:27:18.779Z,97815.59
2018-07-09T00:29:51.763Z,97814.28
2018-07-09T00:32:24.137Z,97819.39
2018-07-09T00:34:56.653Z,97816.04
2018-07-09T00:37:29.232Z,97816.04
2018-07-09T00:40:01.685Z,97822.53
2018-07-09T00:42:35.000Z,97826.27
2018-07-09T00:45:07.105Z,97837.53
2018-07-09T00:47:39.555Z,97841.75
2018-07-09T00:50:11.992Z,97846.83
2018-07-09T00:52:44.627Z,97851.45
2018-07-09T00:55:17.285Z,97852.20
2018-07-09T00:57:49.405Z,97847.57
2018-07-09T01:00:21.260Z,97851.91
2018-07-09T01:02:53.662Z,97851.68
2018-07-09T01:05:26.069Z,97852.50
2018-07-09T01:07:58.598Z,97851.30
2018-07-09T01:10:31.252Z,97854.89
2018-07-09T01:13:03.458Z,97858.70
2018-07-09T01:15:35.915Z,97860.86
2018-07-09T01:18:07.991Z,97865.94
2018-07-09T01:20:40.822Z,97868.47
2018-07-09T01:23:13.079Z,97864.22
2018-07-09T01:25:46.174Z,97863.70
2018-07-09T01:28:18.896Z,97862.53
2018-07-09T01:30:51.192Z,97872.45
2018-07-09T01:33:23.239Z,97875.36
2018-07-09T01:35:55.954Z,97881.04
2018-07-09T01:38:28.389Z,97870.22
2018-07-09T01:41:00.657Z,97868.42
2018-07-09T01:43:33.161Z,97871.64
2018-07-09T01:46:05.551Z,97874.63
2018-07-09T01:48:38.789Z,97874.32
2018-07-09T01:51:11.198Z,97878.50
2018-07-09T01:53:43.404Z,97886.56
2018-07-09T01:56:15.909Z,97881.78
2018-07-09T01:58:47.958Z,97875.29
2018-07-09T02:01:20.067Z,97880.96
2018-07-09T02:03:51.976Z,97871.56
2018-07-09T02:06:24.188Z,97877.02
2018-07-09T02:08:56.046Z,97882.83
2018-07-09T02:11:28.107Z,97897.61
2018-07-09T02:14:00.556Z,97901.81
2018-07-09T02:16:33.108Z,97899.72
2018-07-09T02:19:05.559Z,97905.32
2018-07-09T02:21:38.452Z,97912.55
2018-07-09T02:24:10.437Z,97913.90
2018-07-09T02:26:42.764Z,97909.70
2018-07-09T02:29:14.868Z,97914.20
2018-07-09T02:31:46.884Z,97915.16
2018-07-09T02:34:19.380Z,97913.08
2018-07-09T02:36:52.279Z,97914.13
2018-07-09T02:39:24.197Z,97912.86
2018-07-09T02:41:56.446Z,97917.19
2018-07-09T02:44:28.771Z,97917.63
2018-07-09T02:47:00.889Z,97926.30
2018-07-09T02:49:33.213Z,97922.41
2018-07-09T02:52:05.727Z,97924.52
2018-07-09T02:54:38.126Z,97921.83
2018-07-09T02:57:10.170Z,97928.08
2018-07-09T02:59:42.493Z,97931.50
2018-07-09T03:02:15.117Z,97929.42
2018-07-09T03:04:47.228Z,97934.58
2018-07-09T03:07:19.748Z,97935.62
2018-07-09T03:09:51.927Z,97938.08
2018-07-09T03:12:24.678Z,97935.39
2018-07-09T03:14:57.196Z,97940.47
2018-07-09T03:17:29.584Z,97941.52
2018-07-09T03:20:01.402Z,97941.21
2018-07-09T03:22:33.461Z,97946.58
2018-07-09T03:25:05.377Z,97949.05
2018-07-09T03:27:37.901Z,97946.66
2018-07-09T03:30:10.634Z,97947.70
2018-07-09T03:32:43.294Z,97943.25
2018-07-09T03:35:15.712Z,97952.43
2018-07-09T03:37:48.547Z,97947.92
2018-07-09T03:40:22.126Z,97949.88
2018-07-09T03:42:55.081Z,97948.23
2018-07-09T03:45:27.365Z,97944.50
2018-07-09T03:47:59.475Z,97942.86
2018-07-09T03:50:31.579Z,97944.88
2018-07-09T03:53:03.926Z,97944.05
2018-07-09T03:55:36.123Z,97945.69
2018-07-09T03:58:08.531Z,97951.61
2018-07-09T04:00:41.280Z,97953.38
2018-07-09T04:03:13.457Z,97947.41
2018-07-09T04:05:45.614Z,97947.27
2018-07-09T04:08:18.281Z,97956.67
2018-07-09T04:10:50.494Z,97950.30
2018-07-09T04:13:23.127Z,97956.42
2018-07-09T04:15:55.674Z,97951.34
2018-07-09T04:18:28.374Z,97952.39
2018-07-09T04:21:00.854Z,97944.63
2018-07-09T04:23:33.402Z,97955.08
2018-07-09T04:26:05.649Z,97955.47
2018-07-09T04:28:38.346Z,97952.70
2018-07-09T04:31:10.880Z,97946.59
2018-07-09T04:33:43.158Z,97948.07
2018-07-09T04:36:15.298Z,97952.57
2018-07-09T04:38:48.463Z,97946.73
2018-07-09T04:41:20.509Z,97947.50
2018-07-09T04:43:52.996Z,97949.66
2018-07-09T04:46:25.377Z,97939.44
2018-07-09T04:48:57.977Z,97945.71
2018-07-09T04:51:30.233Z,97949.14
2018-07-09T04:54:02.645Z,97946.75
2018-07-09T04:56:35.034Z,97943.59
2018-07-09T04:59:07.055Z,97940.34
2018-07-09T05:01:40.071Z,97940.86
2018-07-09T05:04:12.611Z,97939.56
2018-07-09T05:06:45.187Z,97939.44
2018-07-09T05:09:17.586Z,97938.17
2018-07-09T05:11:50.014Z,97944.37
2018-07-09T05:14:23.636Z,97950.31
2018-07-09T05:16:56.165Z,97944.15
2018-07-09T05:19:28.827Z,97940.64
2018-07-09T05:22:00.893Z,97944.37
2018-07-09T05:24:33.195Z,97941.68
2018-07-09T05:27:04.893Z,97933.40
2018-07-09T05:29:37.434Z,97939.30
2018-07-09T05:32:09.534Z,97937.70
2018-07-09T05:34:42.039Z,97940.86
2018-07-09T05:37:14.109Z,97941.21
2018-07-09T05:39:47.043Z,97932.33
2018-07-09T05:42:19.715Z,97938.61
2018-07-09T05:44:52.267Z,97936.44
2018-07-09T05:47:26.250Z,97932.41
2018-07-09T05:50:00.141Z,97929.72
2018-07-09T05:52:33.112Z,97925.98
2018-07-09T05:55:05.556Z,97925.00
2018-07-09T05:57:38.576Z,97918.53
2018-07-09T06:00:11.284Z,97917.45
2018-07-09T06:02:43.815Z,97919.36
2018-07-09T06:05:15.920Z,97913.42
2018-07-09T06:07:48.032Z,97909.39
2018-07-09T06:10:20.571Z,97907.01
2018-07-09T06:12:52.810Z,97904.02
2018-07-09T06:15:25.456Z,97907.01
2018-07-09T06:17:57.776Z,97906.48
2018-07-09T06:20:30.295Z,97899.25
2018-07-09T06:23:02.260Z,97898.73
2018-07-09T06:25:34.329Z,97892.53
2018-07-09T06:28:06.160Z,97890.44
2018-07-09T06:30:38.361Z,97890.02
2018-07-09T06:33:10.308Z,97886.86
2018-07-09T06:35:42.076Z,97888.50
2018-07-09T06:38:14.066Z,97877.75
2018-07-09T06:40:46.110Z,97883.43
2018-07-09T06:43:18.408Z,97878.35
2018-07-09T06:45:51.517Z,97875.27
2018-07-09T06:48:23.948Z,97867.61
2018-07-09T06:50:56.449Z,97874.63
2018-07-09T06:53:28.763Z,97870.59
2018-07-09T06:56:01.704Z,97862.23
2018-07-09T06:58:33.787Z,97859.02
2018-07-09T07:01:06.963Z,97866.34
2018-07-09T07:03:39.613Z,97859.06
2018-07-09T07:06:12.218Z,97860.71
2018-07-09T07:08:44.484Z,97848.88
2018-07-09T07:11:17.303Z,97850.27
2018-07-09T07:13:49.575Z,97846.23
2018-07-09T07:16:22.182Z,97845.19
2018-07-09T07:18:54.534Z,97838.98
2018-07-09T07:21:26.975Z,97835.48
2018-07-09T07:23:59.008Z,97833.02
2018-07-09T07:26:31.278Z,97834.21
2018-07-09T07:29:03.479Z,97826.38
2018-07-09T07:31:36.290Z,97826.48
2018-07-09T07:34:08.474Z,97823.77
2018-07-09T07:36:40.835Z,97829.36
2018-07-09T07:39:12.839Z,97820.47
2018-07-09T07:41:45.601Z,97816.14
2018-07-09T07:44:17.727Z,97815.92
2018-07-09T07:46:50.314Z,97809.20
2018-07-09T07:49:22.422Z,97802.78
2018-07-09T07:51:55.042Z,97803.61
2018-07-09T07:54:27.473Z,97806.81
2018-07-09T07:57:00.287Z,97804.42
2018-07-09T07:59:32.139Z,97798.53
2018-07-09T08:02:04.344Z,97798.87
2018-07-09T08:04:36.302Z,97795.36
2018-07-09T08:07:08.578Z,97792.45
2018-07-09T08:09:40.898Z,97790.77
2018-07-09T08:13:00.536Z,97791.70
2018-07-09T08:14:45.622Z,97789.53
2018-07-09T08:17:18.324Z,97785.39
2018-07-09T08:19:50.511Z,97783.45
2018-07-09T08:22:22.999Z,97780.31
2018-07-09T08:24:55.408Z,97775.69
2018-07-09T08:27:28.069Z,97778.70
2018-07-09T08:30:00.251Z,97768.36
2018-07-09T08:32:32.931Z,97755.96
2018-07-09T08:35:05.149Z,97747.01
2018-07-09T08:37:37.444Z,97748.09
2018-07-09T08:40:10.010Z,97750.88
2018-07-09T08:42:42.639Z,97746.84
2018-07-09T08:45:14.760Z,97748.00
2018-07-09T08:47:47.097Z,97739.12
2018-07-09T08:50:19.213Z,97739.38
2018-07-09T08:52:51.270Z,97735.45
2018-07-09T08:55:23.841Z,97727.09
2018-07-09T08:57:56.819Z,97727.97
2018-07-09T09:00:30.283Z,97713.05
2018-07-09T09:03:03.028Z,97721.78
2018-07-09T09:05:35.815Z,97722.83
2018-07-09T09:08:08.909Z,97713.48
2018-07-09T09:10:42.527Z,97708.04
2018-07-09T09:13:16.605Z,97710.37
2018-07-09T09:15:49.344Z,97702.56
2018-07-09T09:18:21.936Z,97707.41
2018-07-09T09:20:55.366Z,97707.41
2018-07-09T09:23:28.586Z,97698.80
2018-07-09T09:26:01.418Z,97700.50
2018-07-09T09:28:33.741Z,97704.59
2018-07-09T09:31:06.312Z,97699.16
2018-07-09T09:33:39.399Z,97699.68
2018-07-09T09:36:11.805Z,97687.88
2018-07-09T09:38:45.688Z,97692.50
2018-07-09T09:41:18.204Z,97686.30
2018-07-09T09:43:50.983Z,97682.27
2018-07-09T09:46:23.490Z,97684.14
2018-07-09T09:48:56.567Z,97679.58
2018-07-09T09:51:29.176Z,97681.98
2018-07-09T09:54:02.069Z,97677.45
2018-07-09T09:56:34.495Z,97665.65
2018-07-09T09:59:07.478Z,97657.02
2018-07-09T10:01:39.773Z,97655.95
2018-07-09T10:04:12.730Z,97651.91
2018-07-09T10:06:44.716Z,97647.88
2018-07-09T10:09:16.710Z,97634.17
2018-07-09T10:11:49.245Z,97632.83
2018-07-09T10:14:21.889Z,97639.05
2018-07-09T10:16:55.081Z,97635.61
2018-07-09T10:19:27.699Z,97632.16
2018-07-09T10:21:59.941Z,97629.22
2018-07-09T10:24:32.366Z,97633.77
2018-07-09T10:27:04.846Z,97626.27
2018-07-09T10:29:37.445Z,97623.61
2018-07-09T10:32:09.623Z,97612.85
2018-07-09T10:34:42.055Z,97613.61
2018-07-09T10:37:14.658Z,97612.85
2018-07-09T10:39:48.364Z,97613.14
2018-07-09T10:42:23.185Z,97620.16
2018-07-09T10:44:55.798Z,97608.88
2018-07-09T10:47:28.439Z,97605.75
2018-07-09T10:50:01.023Z,97598.73
2018-07-09T10:52:33.732Z,97598.27
2018-07-09T10:55:06.890Z,97587.02
2018-07-09T10:57:38.809Z,97592.92
2018-07-09T11:00:11.586Z,97595.09
2018-07-09T11:02:43.821Z,97590.76
2018-07-09T11:05:16.258Z,97587.31
2018-07-09T11:07:48.630Z,97584.91
2018-07-09T11:10:21.127Z,97584.63
2018-07-09T11:12:53.722Z,97587.89
2018-07-09T11:15:27.436Z,97592.39
2018-07-09T11:17:59.904Z,97580.59
2018-07-09T11:20:32.141Z,97581.34
2018-07-09T11:23:05.005Z,97587.89
2018-07-09T11:25:37.585Z,97586.05
2018-07-09T11:28:09.985Z,97578.54
2018-07-09T11:30:42.573Z,97576.64
2018-07-09T11:33:18.382Z,97578.27
2018-07-09T11:35:50.956Z,97569.45
2018-07-09T11:38:22.859Z,97578.13
2018-07-09T11:40:55.580Z,97570.88
2018-07-09T11:43:28.087Z,97572.30
2018-07-09T11:46:00.417Z,97567.95
2018-07-09T11:48:32.563Z,97570.64
2018-07-09T11:51:05.865Z,97566.31
2018-07-09T11:56:28.254Z,97566.87
2018-07-09T11:59:01.178Z,97566.87
2018-07-09T12:01:33.721Z,97560.44
2018-07-09T12:04:06.447Z,97564.18
2018-07-09T12:06:39.335Z,97560.94
2018-07-09T12:09:11.546Z,97568.50
2018-07-09T12:11:44.078Z,97576.55
2018-07-09T12:14:16.694Z,97576.87
2018-07-09T12:16:49.108Z,97575.34
2018-07-09T12:19:21.458Z,97579.38
2018-07-09T12:21:54.605Z,97578.83
2018-07-09T12:24:26.687Z,97574.55
2018-07-09T12:26:58.970Z,97575.89
2018-07-09T12:29:31.738Z,97578.03
2018-07-09T12:32:03.716Z,97579.93
2018-07-09T12:34:35.805Z,97573.20
2018-07-09T12:37:08.209Z,97578.30
2018-07-09T12:39:40.528Z,97578.56
2018-07-09T12:42:13.304Z,97573.50
2018-07-09T12:44:45.711Z,97578.59
2018-07-09T12:47:18.355Z,97580.43
2018-07-09T12:49:50.440Z,97589.84
2018-07-09T12:52:22.656Z,97590.41
2018-07-09T12:54:55.139Z,97588.00
2018-07-09T12:57:27.580Z,97592.04
2018-07-09T12:59:59.718Z,97599.94
2018-07-09T13:02:31.566Z,97595.61
2018-07-09T13:05:03.447Z,97595.02
2018-07-09T13:07:36.589Z,97600.75
2018-07-09T13:10:08.647Z,97605.02
2018-07-09T13:12:41.082Z,97607.71
2018-07-09T13:15:14.882Z,97615.49
2018-07-09T13:17:47.980Z,97620.88
2018-07-09T13:20:20.103Z,97624.84
2018-07-09T13:22:52.760Z,97618.42
2018-07-09T13:25:25.021Z,97624.03
2018-07-09T13:27:57.600Z,97622.98
2018-07-09T13:30:30.095Z,97626.48
2018-07-09T13:33:02.801Z,97629.70
2018-07-09T13:35:35.315Z,97623.80
2018-07-09T13:38:07.735Z,97628.36
2018-07-09T13:40:40.021Z,97630.76
2018-07-09T13:43:12.130Z,97627.59
2018-07-09T13:45:44.775Z,97633.27
2018-07-09T13:48:16.960Z,97640.52
2018-07-09T13:50:49.806Z,97645.91
2018-07-09T13:53:22.365Z,97642.10
2018-07-09T13:55:54.874Z,97644.85
2018-07-09T13:58:28.047Z,97651.88
2018-07-09T14:01:00.746Z,97653.98
2018-07-09T14:03:33.158Z,97651.52
2018-07-09T14:06:05.761Z,97657.40
2018-07-09T14:08:38.012Z,97669.01
2018-07-09T14:11:10.696Z,97672.52
2018-07-09T14:13:42.591Z,97673.57
2018-07-09T14:16:14.657Z,97681.41
2018-07-09T14:18:47.321Z,97698.90
2018-07-09T14:21:19.406Z,97703.17
2018-07-09T14:23:52.043Z,97709.08
2018-07-09T14:26:24.647Z,97709.37
2018-07-09T14:28:57.215Z,97719.60
2018-07-09T14:31:29.186Z,97719.83
2018-07-09T14:34:01.611Z,97717.38
2018-07-09T14:36:33.879Z,97724.16
2018-07-09T14:39:07.072Z,97735.98
2018-07-09T14:41:39.358Z,97741.12
2018-07-09T14:44:11.448Z,97743.49
2018-07-09T14:46:44.014Z,97738.67
2018-07-09T14:49:16.069Z,97750.77
2018-07-09T14:51:48.487Z,97757.20
2018-07-09T14:54:20.706Z,97764.52
2018-07-09T14:56:52.796Z,97776.63
2018-07-09T14:59:25.011Z,97776.10
2018-07-09T15:01:57.220Z,97781.72
2018-07-09T15:04:29.972Z,97787.09
2018-07-09T15:07:01.777Z,97791.92
2018-07-09T15:09:33.802Z,97793.82
2018-07-09T15:12:06.051Z,97800.52
2018-07-09T15:14:38.294Z,97806.98
2018-07-09T15:17:11.428Z,97815.05
2018-07-09T15:19:44.477Z,97820.43
2018-07-09T15:22:16.624Z,97817.74
2018-07-09T15:24:48.928Z,97830.93
2018-07-09T15:27:21.203Z,97822.89
2018-07-09T15:29:54.156Z,97824.53
2018-07-09T15:32:29.849Z,97825.81
2018-07-09T15:35:02.417Z,97835.23
2018-07-09T15:37:34.414Z,97840.09
2018-07-09T15:40:06.845Z,97840.34
2018-07-09T15:42:39.254Z,97845.99
2018-07-09T15:45:11.502Z,97852.72
2018-07-09T15:47:45.025Z,97856.48
2018-07-09T15:50:17.134Z,97867.48
2018-07-09T15:52:49.774Z,97872.79
2018-07-09T15:55:21.879Z,97879.36
2018-07-09T15:57:54.141Z,97880.70
2018-07-09T16:00:26.729Z,97882.50
2018-07-09T16:02:58.927Z,97884.73
2018-07-09T16:05:31.356Z,97891.17
2018-07-09T16:08:03.740Z,97894.95
2018-07-09T16:10:36.385Z,97907.61
2018-07-09T16:13:08.445Z,97903.84
2018-07-09T16:15:41.338Z,97915.38
2018-07-09T16:18:13.191Z,97921.33
2018-07-09T16:20:45.618Z,97913.55
2018-07-09T16:23:17.924Z,97910.00
2018-07-09T16:25:50.279Z,97903.50
2018-07-09T16:28:22.293Z,97914.27
2018-07-09T16:30:54.567Z,97915.09
2018-07-09T16:33:26.800Z,97914.79
2018-07-09T16:35:59.329Z,97916.13
2018-07-09T16:38:31.885Z,97914.79
2018-07-09T16:41:04.819Z,97919.13
2018-07-09T16:43:37.044Z,97920.77
2018-07-09T16:46:09.256Z,97921.58
2018-07-09T16:48:42.271Z,97928.05
2018-07-09T16:51:14.558Z,97918.83
2018-07-09T16:53:47.177Z,97921.33
2018-07-09T16:56:19.417Z,97925.84
2018-07-09T16:58:51.644Z,97925.55
2018-07-09T17:01:24.360Z,97920.47
2018-07-09T17:03:56.508Z,97916.13
2018-07-09T17:06:28.862Z,97919.72
2018-07-09T17:09:01.395Z,97927.48
2018-07-09T17:11:33.885Z,97925.84
2018-07-09T17:14:06.210Z,97922.11
2018-07-09T17:16:38.897Z,97920.47
2018-07-09T17:19:11.735Z,97919.64
2018-07-09T17:21:44.047Z,97922.56
2018-07-09T17:24:16.288Z,97926.30
2018-07-09T17:26:48.631Z,97922.27
2018-07-09T17:29:21.122Z,97918.83
2018-07-09T17:31:53.762Z,97911.58
2018-07-09T17:34:25.962Z,97913.45
2018-07-09T17:36:58.550Z,97908.81
2018-07-09T17:39:30.654Z,97908.59
2018-07-09T17:42:03.166Z,97909.11
2018-07-09T17:44:36.092Z,97914.49
2018-07-09T17:47:08.604Z,97909.94
2018-07-09T17:49:42.124Z,97903.13
2018-07-09T17:52:14.392Z,97906.13
2018-07-09T17:54:47.306Z,97906.95
2018-07-09T17:57:19.811Z,97899.06
2018-07-09T17:59:52.088Z,97898.02
2018-07-09T18:02:24.569Z,97895.84
2018-07-09T18:04:56.900Z,97893.20
2018-07-09T18:07:30.351Z,97898.77
2018-07-09T18:10:02.477Z,97895.06
2018-07-09T18:12:34.508Z,97903.92
2018-07-09T18:15:07.256Z,97902.58
2018-07-09T18:17:39.704Z,97905.83
2018-07-09T18:20:12.028Z,97899.59
2018-07-09T18:22:44.361Z,97906.31
2018-07-09T18:25:16.434Z,97895.32
2018-07-09T18:27:49.307Z,97894.50
2018-07-09T18:30:22.016Z,97898.83
2018-07-09T18:32:54.661Z,97890.17
2018-07-09T18:35:27.178Z,97897.19
2018-07-09T18:37:59.646Z,97890.77
2018-07-09T18:40:31.752Z,97901.53
2018-07-09T18:43:04.806Z,97900.93
2018-07-09T18:45:36.935Z,97899.78
2018-07-09T18:48:09.382Z,97901.45
2018-07-09T18:50:41.858Z,97904.34
2018-07-09T18:53:13.902Z,97907.33
2018-07-09T18:55:46.001Z,97911.06
2018-07-09T18:58:18.763Z,97906.73
2018-07-09T19:00:51.177Z,97910.77
2018-07-09T19:03:23.465Z,97917.27
2018-07-09T19:07:11.517Z,97912.34
2018-07-09T19:09:45.056Z,97904.05
2018-07-09T19:12:17.665Z,97909.72
2018-07-09T19:14:50.393Z,97908.83
2018-07-09T19:17:58.192Z,97906.44
2018-07-09T19:20:39.647Z,97909.42
2018-07-09T19:23:10.074Z,97899.70
2018-07-09T19:25:39.930Z,97910.47
2018-07-09T19:28:09.344Z,97908.04
2018-07-09T19:30:39.161Z,97899.70
2018-07-09T19:33:08.669Z,97903.18
2018-07-09T19:35:38.663Z,97895.38
2018-07-09T19:38:07.921Z,97898.95
2018-07-09T19:40:37.415Z,97895.67
2018-07-09T19:43:06.931Z,97885.21
2018-07-09T19:45:36.347Z,97886.78
2018-07-09T19:48:06.126Z,97884.62
2018-07-09T19:50:35.712Z,97881.93
2018-07-09T19:53:04.999Z,97879.23
2018-07-09T19:55:34.395Z,97891.90
2018-07-09T19:58:04.153Z,97886.97
2018-07-09T20:00:33.852Z,97893.24
2018-07-09T20:03:02.949Z,97888.61
2018-07-09T20:05:32.989Z,97890.00
2018-07-09T20:08:02.522Z,97887.56
2018-07-09T20:10:36.704Z,97888.09
2018-07-09T20:13:11.128Z,97882.94
2018-07-09T20:15:44.929Z,97883.16
2018-07-09T20:18:14.738Z,97880.17
2018-07-09T20:20:43.853Z,97880.47
2018-07-09T20:23:13.162Z,97868.67
2018-07-09T20:25:42.712Z,97871.42
2018-07-09T20:28:12.506Z,97863.59
2018-07-09T20:30:42.372Z,97866.73
2018-07-09T20:33:11.714Z,97858.95
2018-07-09T20:35:41.152Z,97857.02
2018-07-09T20:38:11.254Z,97862.70
2018-07-09T20:40:40.958Z,97866.27
2018-07-09T20:43:09.965Z,97864.04
2018-07-09T20:45:39.114Z,97862.39
2018-07-09T20:48:08.475Z,97862.99
2018-07-09T20:50:37.906Z,97865.09
2018-07-09T20:53:07.355Z,97863.74
2018-07-09T20:55:36.664Z,97858.33
2018-07-09T20:58:05.566Z,97858.84
2018-07-09T21:00:34.961Z,97859.70
2018-07-09T21:03:04.788Z,97865.87
2018-07-09T21:05:34.382Z,97868.48
2018-07-09T21:08:03.794Z,97867.66
2018-07-09T21:10:33.604Z,97867.73
2018-07-09T21:13:03.441Z,97862.66
2018-07-09T21:15:33.089Z,97869.31
2018-07-09T21:18:02.179Z,97865.57
2018-07-09T21:20:31.495Z,97863.70
2018-07-09T21:23:00.663Z,97874.69
2018-07-09T21:25:30.147Z,97873.56
2018-07-09T21:27:59.130Z,97870.88
2018-07-09T21:30:28.548Z,97883.58
2018-07-09T21:32:57.940Z,97885.97
2018-07-09T21:35:26.906Z,97883.80
2018-07-09T21:37:56.835Z,97893.73
2018-07-09T21:40:26.422Z,97895.61
2018-07-09T21:42:56.054Z,97888.32
2018-07-09T21:45:25.601Z,97896.95
2018-07-09T21:47:59.211Z,97898.25
2018-07-09T21:50:24.630Z,97890.75
2018-07-09T21:52:54.032Z,97890.11
2018-07-09T21:55:23.069Z,97891.76
2018-07-09T21:57:52.813Z,97893.40
2018-07-09T22:00:22.445Z,97896.61
2018-07-09T22:02:52.386Z,97906.55
2018-07-09T22:05:22.071Z,97899.90
2018-07-09T22:07:51.130Z,97898.48
2018-07-09T22:10:20.748Z,97896.91
2018-07-09T22:12:50.097Z,97898.48
2018-07-09T22:15:19.112Z,97901.17
2018-07-09T22:17:48.488Z,97902.44
2018-07-09T22:20:17.903Z,97898.63
2018-07-09T22:22:47.035Z,97899.23
2018-07-09T22:25:16.172Z,97902.97
2018-07-09T22:27:45.365Z,97905.09
2018-07-09T22:30:14.783Z,97902.14
2018-07-09T22:32:47.326Z,97903.48
2018-07-09T22:35:19.880Z,97904.01
2018-07-09T22:37:52.404Z,97899.19
2018-07-09T22:40:24.840Z,97904.79
2018-07-09T22:42:58.817Z,97904.56
2018-07-09T22:45:31.258Z,97905.09
2018-07-09T22:48:03.732Z,97903.74
2018-07-09T22:50:36.476Z,97902.40
2018-07-09T22:53:08.751Z,97897.47
2018-07-09T22:55:50.024Z,97898.06
2018-07-09T22:58:22.666Z,97906.13
2018-07-09T23:00:54.996Z,97902.84
2018-07-09T23:03:27.698Z,97903.45
2018-07-09T23:05:59.696Z,97905.84
2018-07-09T23:08:32.247Z,97905.98
2018-07-09T23:25:02.544Z,97905.98
2018-07-09T23:27:31.950Z,97919.61
2018-07-09T23:30:01.358Z,97925.21
2018-07-09T23:32:30.771Z,97918.56
2018-07-09T23:35:00.299Z,97926.93
2018-07-09T23:37:29.818Z,97922.90
2018-07-09T23:39:58.655Z,97930.96
2018-07-09T23:42:28.027Z,97933.35
2018-07-09T23:44:57.432Z,97936.04
2018-07-09T23:47:26.765Z,97944.86
2018-07-09T23:49:55.994Z,97946.80
2018-07-09T23:52:25.142Z,97955.01
2018-07-09T23:54:54.685Z,97954.19
2018-07-09T23:57:36.531Z,97954.27
